Hlavní strana
METAR-TAF:

METAR-TAF

Letiště :

Letiště Teherán-Mehrabád

Teherán, Írán

zeměpisná šířka: 35-41N, zeměpisná délka: 051-21E, výška: 1204 m

Aktuální stav počasí

Zpráva byla vytvořena před 16 minutami, v 00:30 UTC
Severoseverozápadní vítr 4 kt
Teplota 6°C
Vlhkost vzduchu 42%
Tlak 1018 hPa
Viditelnost 10 km a více
Žádná oblačnost pod 1500 m, nevyskytují se cumulonimby.

METAR: OIII 160030Z 33004KT CAVOK 06/M06 Q1017 A3005

Čas: 04:16 (00:46 UTC)

Předpověď počasí

Zpráva byla vytvořena před 1 hodinou a 46 minutami, v 23:00 UTC
Předpověď platná od 16 v 00 UTC do 17 v 06 UTC
Západoseverozápadní vítr 8 kt
Viditelnost: 7000 m
Skoro jasno ve výšce 4500 ft
Dočasný
od 17 v 00 UTC do 17 v 06 UTC
Skoro jasno ve výšce 3500 ft, Cumulonimbus.
Polojasno ve výšce 4000 ft
Oblačno až skoro zataženo ve výšce 9000 ft
Pravděpodobnost 40%
mezi 40 a 00 UTC
sníh

TAF: OIII 152300Z 1600/1706 29008KT 7000 FEW045 TEMPO 1700/1706 FEW035CB SCT040 BKN090 PROB40 4000 SN

Stav a předpovědi počasí z více než 4 000 letišť (zprávy METAR a TAF).

Červené a žluté tečky na mapě představují dostupné meteorologické stanice.

Když kurzor umístíte na tečku, zobrazí se název stanice.

Pak kliknutím zobrazíte stav a předpověď počasí.

Chcete-li změnit mapu, kliknutím na zelené tlačítko se znaménkem +mapu přiblížíte, kliknutím na zelené tlačítko se znaménkem – mapu oddálíte a kliknutím na zelené šipky přejdete na sousední mapy.


METAR-TAF: